• Join FlightAware (Why Join?)
  • Login
  • US Flag 
07:04PM EDT


 

Airport Tracker/Info


-or-


 

Live Flight TrackerFlight Track Log ✈ ASQ3843 ✈ 19-May-2013 ✈ KEWR - KATL

Flight Track Log - Related Links

Times and Time Zones

All times are in EDT time to prevent confusion due to time zone crossing. See the ASQ3843 flight status page for this flight to view local times or setup timezone preferences in your user account.

Time Position Orientation Groundspeed Altitude Reporting Facility
EDT Latitude Longitude Course Direction KTS MPH feet Rate Location/Type
10:01AM 40.6667 -74.1833 252° West 157 181 500  Level New York TRACON
10:03AM 40.6333 -74.2833 246° West 262 302 3,700 1,980 Climbing New York TRACON
10:04AM 40.6333 -74.4000 270° West 251 289 6,600 2,040 Climbing New York TRACON
10:06AM 40.6117 -74.5464 259° West 276 318 9,700 1,860 Climbing New York Center
10:07AM 40.5561 -74.9922 252° West  Level FlightAware Approximate
10:07AM 40.5997 -74.6550 262° West 276 318 11,800  Level New York Center
10:08AM 40.5906 -74.7475 263° West 282 325 13,400 1,500 Climbing New York Center
10:09AM 40.5783 -74.8614 262° West 282 325 14,900 1,140 Climbing New York Center
10:10AM 40.5664 -74.9619 261° West 304 350 15,700 840 Climbing New York Center
10:11AM 40.5247 -75.0794 245° Southwest 315 362 16,600 840 Climbing New York Center
10:12AM 40.4647 -75.1792 232° Southwest 342 394 17,500 780 Climbing New York Center
10:13AM 40.4003 -75.2814 230° Southwest 362 417 18,200 840 Climbing New York Center
10:14AM 40.3339 -75.3861 230° Southwest 367 422 19,200 960 Climbing New York Center
10:15AM 40.2692 -75.4906 231° Southwest 372 428 20,200 960 Climbing New York Center
10:16AM 40.2044 -75.6003 232° Southwest 377 434 21,200 900 Climbing New York Center
10:17AM 40.1453 -75.7183 237° Southwest 387 445 22,000 780 Climbing New York Center
10:18AM 40.0861 -75.8364 237° Southwest 392 451 22,800 780 Climbing New York Center
10:19AM 40.0244 -75.9592 237° Southwest 397 457 23,600 780 Climbing New York Center
10:20AM 39.9647 -76.0822 238° Southwest 402 463 24,400 840 Climbing New York Center
10:21AM 39.9033 -76.1967 235° Southwest 402 463 25,400 1,080 Climbing New York Center
10:22AM 39.8372 -76.3158 234° Southwest 397 457 26,600 900 Climbing New York Center
10:23AM 39.7772 -76.4392 238° Southwest 400 460 27,300 660 Climbing Washington Center
10:24AM 39.7183 -76.5436 234° Southwest 390 449 28,000 720 Climbing Washington Center
10:25AM 39.6569 -76.6617 236° Southwest 400 460 28,800 720 Climbing Washington Center
10:26AM 39.5953 -76.7819 236° Southwest 400 460 29,500 720 Climbing Washington Center
10:27AM 39.5336 -76.8992 236° Southwest 400 460 30,300 780 Climbing Washington Center
10:28AM 39.4614 -77.0108 230° Southwest 400 460 31,100 780 Climbing Washington Center
10:29AM 39.3750 -77.1031 220° Southwest 400 460 31,900 780 Climbing Washington Center
10:30AM 39.2842 -77.1978 219° Southwest 413 475 32,700 780 Climbing Washington Center
10:31AM 39.1953 -77.2922 219° Southwest 418 481 33,500 780 Climbing Washington Center
10:32AM 39.1064 -77.3864 219° Southwest 418 481 34,400 900 Climbing Washington Center
10:33AM 39.0175 -77.4778 219° Southwest 418 481 35,400 780 Climbing Washington Center
10:34AM 38.9200 -77.5794 219° Southwest 418 481 36,000 300 Climbing Washington Center
10:35AM 38.8392 -77.6625 219° Southwest 418 481 36,000  Level Washington Center
10:36AM 38.7311 -77.7711 218° Southwest 437 503 36,000  Level Washington Center
10:37AM 38.6375 -77.8747 221° Southwest 443 510 36,000  Level Washington Center
10:38AM 38.5619 -78.0000 232° Southwest 449 517 36,000  Level Washington Center
10:39AM 38.4864 -78.1275 233° Southwest 455 524 36,000  Level Washington Center
10:40AM 38.4147 -78.2547 234° Southwest 455 524 36,000  Level Washington Center
10:41AM 38.3389 -78.3819 233° Southwest 450 518 36,000  Level Washington Center
10:42AM 38.2653 -78.5033 232° Southwest 450 518 36,000  Level Washington Center
10:43AM 38.1953 -78.6275 234° Southwest 445 512 36,000  Level Washington Center
10:44AM 38.1214 -78.7511 233° Southwest 445 512 36,000  Level Washington Center
10:45AM 38.0536 -78.8617 232° Southwest 445 512 36,000  Level Washington Center
10:46AM 37.9794 -78.9850 233° Southwest 445 512 36,000  Level Washington Center
10:47AM 37.9028 -79.1078 232° Southwest 445 512 36,000  Level Washington Center
10:48AM 37.8200 -79.2250 228° Southwest 450 518 36,000  Level Washington Center
10:49AM 37.7286 -79.3517 228° Southwest 456 525 36,000  Level Washington Center
10:50AM 37.6433 -79.4708 228° Southwest 456 525 36,000  Level Washington Center
10:51AM 37.5669 -79.5717 226° Southwest 456 525 36,000  Level Washington Center
10:52AM 37.4750 -79.7003 228° Southwest 451 519 36,000  Level Washington Center
10:53AM 37.3875 -79.8186 227° Southwest 458 527 36,000  Level Washington Center
10:54AM 37.2472 -80.0031 226° Southwest 454 522 36,000  Level Atlanta Center
10:55AM 37.1614 -80.1194 227° Southwest 454 522 36,000  Level Atlanta Center
10:56AM 37.0853 -80.2219 227° Southwest 459 528 36,000  Level Atlanta Center
10:57AM 37.0014 -80.3353 227° Southwest 459 528 36,000  Level Atlanta Center
10:58AM 36.9192 -80.4481 228° Southwest 453 521 36,000  Level Atlanta Center
10:59AM 36.8247 -80.5692 226° Southwest 453 521 36,000  Level Atlanta Center
11:00AM 36.7603 -80.6575 228° Southwest 447 514 36,000  Level Atlanta Center
11:01AM 36.6697 -80.7750 226° Southwest 434 499 36,000  Level Atlanta Center
11:02AM 36.5853 -80.8897 228° Southwest 439 505 36,000  Level Atlanta Center
11:03AM 36.5025 -81.0042 228° Southwest 439 505 36,000  Level Atlanta Center
11:04AM 36.4175 -81.1131 226° Southwest 439 505 36,000  Level Atlanta Center
11:05AM 36.3267 -81.2350 227° Southwest 439 505 36,000  Level Atlanta Center
11:06AM 36.2414 -81.3433 226° Southwest 439 505 36,000  Level Atlanta Center
11:07AM 36.1603 -81.4517 227° Southwest 431 496 36,000  Level Atlanta Center
11:08AM 36.0731 -81.5675 227° Southwest 438 504 36,000  Level Atlanta Center
11:09AM 35.9936 -81.6725 227° Southwest 432 497 36,000  Level Atlanta Center
11:10AM 35.9103 -81.7775 226° Southwest 432 497 36,000  Level Atlanta Center
11:11AM 35.8286 -81.8822 226° Southwest 427 491 36,000  Level Atlanta Center
11:12AM 35.7469 -81.9892 227° Southwest 427 491 36,000  Level Atlanta Center
11:13AM 35.6672 -82.0883 225° Southwest 422 486 36,000  Level Atlanta Center
11:14AM 35.5875 -82.1897 226° Southwest 422 486 36,000 -300 Level Atlanta Center
11:15AM 35.5075 -82.2886 225° Southwest 416 479 35,400 -840 Descending Atlanta Center
11:16AM 35.4256 -82.3872 224° Southwest 408 470 34,400 -900 Descending Atlanta Center
11:17AM 35.3392 -82.4856 223° Southwest 420 483 33,700 -780 Descending Atlanta Center
11:18AM 35.2608 -82.5736 223° Southwest 425 489 32,900 -1,200 Descending Atlanta Center
11:19AM 35.1744 -82.6667 221° Southwest 425 489 31,400 -1,500 Descending Atlanta Center
11:20AM 35.0878 -82.7619 222° Southwest 425 489 29,900 -1,500 Descending Atlanta Center
11:21AM 34.9969 -82.8597 221° Southwest 431 496 28,400 -1,560 Descending Atlanta Center
11:22AM 34.9122 -82.9497 221° Southwest 431 496 26,800 -1,560 Descending Atlanta Center
11:23AM 34.8336 -83.0367 222° Southwest 405 466 25,300 -1,500 Descending Atlanta Center
11:24AM 34.7531 -83.1261 222° Southwest 395 455 23,800 -1,320 Descending Atlanta Center
11:25AM 34.6744 -83.2153 223° Southwest 389 448 22,700 -1,080 Descending Atlanta Center
11:26AM 34.5975 -83.2969 221° Southwest 380 437 21,700 -1,020 Descending Atlanta Center
11:27AM 34.5189 -83.3833 222° Southwest 380 437 20,700 -1,320 Descending Atlanta Center
11:28AM 34.4317 -83.4722 220° Southwest 374 430 19,100 -1,740 Descending Atlanta Center
11:29AM 34.3589 -83.5556 223° Southwest 374 430 17,300 -2,040 Descending Atlanta Center
11:30AM 34.2861 -83.6342 222° Southwest 361 415 15,100 -1,680 Descending Atlanta Center
11:31AM 34.2133 -83.7097 221° Southwest 361 415 14,000 -600 Descending Atlanta Center
11:32AM 34.1467 -83.7778 220° Southwest 340 391 14,000  Level Atlanta Center
11:33AM 34.0800 -83.8506 222° Southwest 323 372 14,100 -540 Climbing Atlanta Center
11:34AM 34.0333 -83.9000 221° Southwest 312 359 13,100 -1,140 Descending Atlanta TRACON
11:35AM 33.9667 -83.9667 220° Southwest 327 376 12,100 -600 Descending Atlanta TRACON
11:36AM 33.8833 -84.0333 214° Southwest 326 375 12,000 -60 Descending Atlanta TRACON
11:37AM 33.8167 -84.0833 212° Southwest 309 356 12,000  Level Atlanta TRACON
11:38AM 33.7500 -84.1500 220° Southwest 307 353 12,000  Level Atlanta TRACON
11:39AM 33.7333 -84.2333 256° West 292 336 12,000 -180 Level Atlanta TRACON
11:40AM 33.7333 -84.3333 270° West 294 338 11,700 -1,200 Descending Atlanta TRACON
11:41AM 33.7333 -84.4500 270° West 298 343 9,700 -1,860 Descending Atlanta TRACON
11:42AM 33.7333 -84.5333 270° West 271 312 7,800 -1,980 Descending Atlanta TRACON
11:43AM 33.7333 -84.6167 270° West 251 289 5,800 -1,500 Descending Atlanta TRACON
11:44AM 33.7333 -84.6833 270° West 219 252 5,000 -600 Descending Atlanta TRACON
11:45AM 33.6833 -84.7000 196° South 180 207 4,700 -480 Descending Atlanta TRACON
11:46AM 33.6500 -84.6500 129° Southeast 201 231 4,100 -720 Descending Atlanta TRACON
11:47AM 33.6500 -84.5833 90° East 191 220 3,400 -720 Descending Atlanta TRACON